Monte Veloz, Argentina
Current Conditions -  °F | °C
As of 3:00 AM on Sunday 21 Dec 2014 (Local Time) from SUMU Reporting Station
Broken Clouds Broken Clouds  
Wind Chill: 70°   Ceiling: 2000
Heat Index: 70°   Visibility: 6mi
Dew Point: 63°   Wind: 14mph
Humidity: 78%   Direction: 160°SSE
Pressure: 29.62"   Gusts: NA
Location:  35.37°S, 57.28°W
Report Text: SUMU 210600Z 16012KT 9999 BKN020 21/17 Q1003 NOSIG
Loading
Personal Weather Stations






























Interactive Weather Map New forecast layout! Learn more

10-Day Weather Forecast

Advertisements
Track Severe Weather on mobile